createdAt,value
2018-06-12T00:00:14.592Z,85.10
2018-06-12T00:01:14.537Z,84.91
2018-06-12T00:02:14.501Z,84.91
2018-06-12T00:03:14.457Z,85.67
2018-06-12T00:04:14.432Z,85.38
2018-06-12T00:05:14.384Z,85.38
2018-06-12T00:06:14.334Z,85.77
2018-06-12T00:07:14.298Z,85.86
2018-06-12T00:08:14.253Z,85.86
2018-06-12T00:09:14.212Z,85.48
2018-06-12T00:10:14.172Z,85.28
2018-06-12T00:11:14.129Z,85.48
2018-06-12T00:12:14.089Z,85.38
2018-06-12T00:13:14.050Z,85.86
2018-06-12T00:14:14.007Z,85.77
2018-06-12T00:15:13.966Z,85.77
2018-06-12T00:16:13.926Z,85.86
2018-06-12T00:17:13.892Z,86.25
2018-06-12T00:18:13.843Z,85.86
2018-06-12T00:19:13.982Z,85.96
2018-06-12T00:20:13.768Z,86.34
2018-06-12T00:21:13.720Z,86.25
2018-06-12T00:22:13.680Z,86.72
2018-06-12T00:23:13.645Z,86.72
2018-06-12T00:24:13.605Z,85.86
2018-06-12T00:25:13.559Z,86.25
2018-06-12T00:27:13.476Z,85.96
2018-06-12T00:28:13.437Z,85.96
2018-06-12T00:29:13.394Z,86.25
2018-06-12T00:30:13.353Z,86.25
2018-06-12T00:31:13.312Z,86.15
2018-06-12T00:32:13.274Z,86.34
2018-06-12T00:33:13.235Z,86.63
2018-06-12T00:34:13.191Z,86.44
2018-06-12T00:35:13.150Z,86.34
2018-06-12T00:36:13.111Z,86.58
2018-06-12T00:37:13.069Z,86.72
2018-06-12T00:38:13.035Z,86.44
2018-06-12T00:39:12.992Z,86.40
2018-06-12T00:40:12.948Z,86.44
2018-06-12T00:41:12.906Z,86.58
2018-06-12T00:42:12.868Z,86.49
2018-06-12T00:43:12.829Z,86.40
2018-06-12T00:44:12.788Z,87.07
2018-06-12T00:45:12.748Z,86.49
2018-06-12T00:46:12.700Z,87.26
2018-06-12T00:47:12.663Z,87.26
2018-06-12T00:48:12.630Z,86.40
2018-06-12T00:49:12.586Z,86.68
2018-06-12T00:50:12.542Z,87.07
2018-06-12T00:51:12.496Z,87.07
2018-06-12T00:52:12.455Z,87.35
2018-06-12T00:53:12.418Z,87.26
2018-06-12T00:54:12.375Z,87.07
2018-06-12T00:55:12.338Z,87.26
2018-06-12T00:56:12.293Z,87.84
2018-06-12T00:57:12.251Z,86.97
2018-06-12T00:58:12.208Z,87.07
2018-06-12T00:59:12.167Z,87.45
2018-06-12T01:00:12.127Z,87.64
2018-06-12T01:01:12.096Z,87.84
2018-06-12T01:02:12.046Z,87.74
2018-06-12T01:03:12.003Z,87.64
2018-06-12T01:04:11.966Z,88.22
2018-06-12T01:05:11.921Z,88.31
2018-06-12T01:06:11.880Z,88.31
2018-06-12T01:07:11.842Z,87.98
2018-06-12T01:08:11.799Z,88.22
2018-06-12T01:09:11.755Z,88.22
2018-06-12T01:10:11.727Z,88.22
2018-06-12T01:11:11.676Z,87.45
2018-06-12T01:12:11.638Z,88.12
2018-06-12T01:13:11.593Z,87.74
2018-06-12T01:14:11.553Z,88.17
2018-06-12T01:15:11.514Z,88.12
2018-06-12T01:16:11.469Z,88.02
2018-06-12T01:17:11.427Z,88.31
2018-06-12T01:18:11.387Z,88.37
2018-06-12T01:19:11.355Z,88.22
2018-06-12T01:20:11.308Z,88.41
2018-06-12T01:21:11.266Z,87.84
2018-06-12T01:22:11.226Z,88.37
2018-06-12T01:23:11.185Z,87.93
2018-06-12T01:24:11.143Z,88.08
2018-06-12T01:25:11.104Z,88.22
2018-06-12T01:26:11.063Z,88.89
2018-06-12T01:27:11.020Z,88.84
2018-06-12T01:28:10.977Z,88.65
2018-06-12T01:29:10.936Z,88.65
2018-06-12T01:30:10.895Z,88.60
2018-06-12T01:31:10.853Z,88.75
2018-06-12T01:32:10.813Z,87.70
2018-06-12T01:33:10.776Z,88.27
2018-06-12T01:34:10.733Z,89.13
2018-06-12T01:35:10.692Z,89.32
2018-06-12T01:36:10.649Z,89.13
2018-06-12T01:37:10.605Z,89.13
2018-06-12T01:38:10.567Z,88.94
2018-06-12T01:39:10.540Z,88.94
2018-06-12T01:40:10.482Z,89.04
2018-06-12T01:41:10.442Z,88.75
2018-06-12T01:42:10.400Z,88.56
2018-06-12T01:43:10.362Z,88.65
2018-06-12T01:44:10.319Z,88.84
2018-06-12T01:45:10.277Z,88.65
2018-06-12T01:46:10.238Z,88.65
2018-06-12T01:47:10.194Z,89.13
2018-06-12T01:48:10.156Z,89.04
2018-06-12T01:49:10.116Z,88.94
2018-06-12T01:50:10.071Z,89.71
2018-06-12T01:51:10.031Z,89.80
2018-06-12T01:52:09.992Z,89.42
2018-06-12T01:53:09.971Z,89.80
2018-06-12T01:54:09.909Z,89.42
2018-06-12T01:55:09.886Z,90.19
2018-06-12T01:56:09.827Z,90.09
2018-06-12T01:57:09.783Z,89.80
2018-06-12T01:58:09.741Z,90.38
2018-06-12T01:59:09.702Z,89.90
2018-06-12T02:00:09.661Z,89.90
2018-06-12T02:01:09.620Z,89.90
2018-06-12T02:02:09.575Z,89.71
2018-06-12T02:03:09.542Z,89.61
2018-06-12T02:04:09.496Z,89.71
2018-06-12T02:05:09.451Z,89.51
2018-06-12T02:06:09.409Z,88.84
2018-06-12T02:07:09.368Z,88.99
2018-06-12T02:08:09.332Z,89.09
2018-06-12T02:09:09.290Z,89.18
2018-06-12T02:10:09.255Z,89.47
2018-06-12T02:11:09.207Z,88.80
2018-06-12T02:12:09.167Z,88.99
2018-06-12T02:13:09.120Z,89.09
2018-06-12T02:14:09.078Z,89.47
2018-06-12T02:15:09.051Z,89.47
2018-06-12T02:16:08.998Z,89.66
2018-06-12T02:17:08.955Z,89.95
2018-06-12T02:18:08.915Z,89.95
2018-06-12T02:19:08.877Z,90.05
2018-06-12T02:20:08.832Z,89.37
2018-06-12T02:21:08.789Z,89.47
2018-06-12T02:22:08.751Z,89.86
2018-06-12T02:23:08.706Z,89.47
2018-06-12T02:24:08.665Z,89.28
2018-06-12T02:25:08.622Z,89.09
2018-06-12T02:26:08.590Z,89.09
2018-06-12T02:27:08.543Z,89.57
2018-06-12T02:28:08.503Z,89.66
2018-06-12T02:29:08.459Z,89.66
2018-06-12T02:30:08.415Z,89.86
2018-06-12T02:31:08.374Z,89.76
2018-06-12T02:32:08.336Z,89.47
2018-06-12T02:33:08.293Z,89.95
2018-06-12T02:34:08.253Z,89.66
2018-06-12T02:35:08.210Z,89.76
2018-06-12T02:36:08.168Z,89.57
2018-06-12T02:37:08.125Z,88.99
2018-06-12T02:38:08.088Z,88.80
2018-06-12T02:39:08.046Z,88.70
2018-06-12T02:40:08.004Z,88.80
2018-06-12T02:41:07.959Z,88.80
2018-06-12T02:42:07.920Z,88.51
2018-06-12T02:43:07.877Z,88.23
2018-06-12T02:44:07.842Z,88.42
2018-06-12T02:45:07.795Z,88.61
2018-06-12T02:46:07.755Z,89.09
2018-06-12T02:47:07.711Z,89.18
2018-06-12T02:48:07.670Z,89.09
2018-06-12T02:49:07.630Z,88.32
2018-06-12T02:50:07.588Z,88.51
2018-06-12T02:51:07.545Z,88.42
2018-06-12T02:52:07.508Z,88.70
2018-06-12T02:53:07.463Z,88.80
2018-06-12T02:54:07.422Z,88.70
2018-06-12T02:55:07.381Z,88.61
2018-06-12T02:56:07.344Z,89.28
2018-06-12T02:57:07.298Z,88.80
2018-06-12T02:58:07.255Z,88.99
2018-06-12T02:59:07.219Z,89.18
2018-06-12T03:00:07.192Z,88.80
2018-06-12T03:01:07.129Z,88.51
2018-06-12T03:02:07.093Z,88.51
2018-06-12T03:03:07.048Z,88.42
2018-06-12T03:04:07.008Z,88.51
2018-06-12T03:05:06.972Z,88.32
2018-06-12T03:06:06.928Z,88.99
2018-06-12T03:07:06.888Z,88.42
2018-06-12T03:08:06.839Z,88.23
2018-06-12T03:09:06.797Z,88.42
2018-06-12T03:10:06.756Z,88.90
2018-06-12T03:11:06.719Z,88.61
2018-06-12T03:12:06.678Z,88.90
2018-06-12T03:13:06.632Z,87.84
2018-06-12T03:14:06.589Z,88.23
2018-06-12T03:15:06.554Z,88.61
2018-06-12T03:16:06.509Z,88.99
2018-06-12T03:17:06.466Z,88.80
2018-06-12T03:18:06.425Z,88.23
2018-06-12T03:19:06.386Z,89.04
2018-06-12T03:20:06.342Z,88.85
2018-06-12T03:21:06.299Z,88.70
2018-06-12T03:22:06.258Z,88.70
2018-06-12T03:23:06.220Z,88.90
2018-06-12T03:24:06.180Z,88.66
2018-06-12T03:25:06.134Z,88.90
2018-06-12T03:26:06.092Z,89.04
2018-06-12T03:27:06.053Z,89.14
2018-06-12T03:28:06.012Z,88.85
2018-06-12T03:29:05.968Z,89.62
2018-06-12T03:30:05.932Z,88.95
2018-06-12T03:31:05.887Z,88.76
2018-06-12T03:32:05.843Z,89.33
2018-06-12T03:33:05.807Z,89.23
2018-06-12T03:34:05.762Z,89.23
2018-06-12T03:35:05.725Z,89.33
2018-06-12T03:36:05.677Z,89.43
2018-06-12T03:37:05.638Z,88.95
2018-06-12T03:38:05.599Z,89.72
2018-06-12T03:39:05.555Z,89.81
2018-06-12T03:40:05.515Z,89.81
2018-06-12T03:41:05.477Z,89.52
2018-06-12T03:42:05.426Z,89.90
2018-06-12T03:43:05.389Z,89.81
2018-06-12T03:44:05.343Z,90.00
2018-06-12T03:45:05.301Z,90.00
2018-06-12T03:46:05.261Z,89.81
2018-06-12T03:47:05.221Z,90.00
2018-06-12T03:48:05.177Z,90.00
2018-06-12T03:49:05.134Z,90.19
2018-06-12T03:50:05.094Z,90.29
2018-06-12T03:51:05.053Z,90.29
2018-06-12T03:52:05.013Z,90.09
2018-06-12T03:53:04.969Z,90.09
2018-06-12T03:54:04.927Z,90.39
2018-06-12T03:55:04.885Z,90.00
2018-06-12T03:56:04.844Z,90.19
2018-06-12T03:57:04.802Z,89.72
2018-06-12T03:58:04.760Z,90.19
2018-06-12T03:59:04.720Z,89.62
2018-06-12T04:00:04.678Z,89.52
2018-06-12T04:01:04.634Z,89.81
2018-06-12T04:02:04.593Z,89.72
2018-06-12T04:03:04.558Z,89.23
2018-06-12T04:04:04.516Z,89.23
2018-06-12T04:05:04.466Z,89.72
2018-06-12T04:06:04.427Z,89.72
2018-06-12T04:07:04.386Z,90.00
2018-06-12T04:08:04.344Z,89.72
2018-06-12T04:09:04.302Z,89.81
2018-06-12T04:10:04.259Z,89.62
2018-06-12T04:11:04.219Z,89.81
2018-06-12T04:12:04.174Z,89.81
2018-06-12T04:13:04.143Z,89.81
2018-06-12T04:14:04.091Z,90.09
2018-06-12T04:15:04.149Z,89.81
2018-06-12T04:16:04.009Z,89.72
2018-06-12T04:17:03.967Z,89.81
2018-06-12T04:18:03.925Z,89.72
2018-06-12T04:19:03.885Z,89.62
2018-06-12T04:20:03.841Z,89.23
2018-06-12T04:21:03.800Z,89.43
2018-06-12T04:22:03.759Z,89.43
2018-06-12T04:23:03.722Z,89.72
2018-06-12T04:24:03.675Z,88.66
2018-06-12T04:25:03.632Z,88.76
2018-06-12T04:26:03.592Z,89.23
2018-06-12T04:27:03.552Z,89.72
2018-06-12T04:28:03.509Z,90.00
2018-06-12T04:29:03.469Z,89.52
2018-06-12T04:30:03.427Z,89.43
2018-06-12T04:31:03.382Z,89.43
2018-06-12T04:32:03.342Z,89.52
2018-06-12T04:33:03.304Z,89.62
2018-06-12T04:34:03.258Z,89.62
2018-06-12T04:35:03.216Z,89.62
2018-06-12T04:36:03.176Z,89.43
2018-06-12T04:37:03.135Z,89.81
2018-06-12T04:38:03.091Z,90.00
2018-06-12T04:39:03.055Z,90.00
2018-06-12T04:40:03.008Z,89.81
2018-06-12T04:41:02.967Z,89.72
2018-06-12T04:42:02.925Z,89.72
2018-06-12T04:43:02.882Z,89.72
2018-06-12T04:44:02.843Z,89.43
2018-06-12T04:45:02.798Z,89.43
2018-06-12T04:46:02.760Z,90.00
2018-06-12T04:47:02.717Z,90.00
2018-06-12T04:48:02.679Z,89.72
2018-06-12T04:49:02.630Z,89.43
2018-06-12T04:50:02.592Z,89.62
2018-06-12T04:51:02.551Z,89.23
2018-06-12T04:52:02.510Z,88.80
2018-06-12T04:53:02.465Z,88.47
2018-06-12T04:54:02.424Z,87.99
2018-06-12T04:55:02.383Z,88.95
2018-06-12T04:56:02.340Z,88.42
2018-06-12T04:57:02.298Z,89.57
2018-06-12T04:58:02.258Z,88.28
2018-06-12T04:59:02.217Z,88.37
2018-06-12T05:00:02.174Z,88.32
2018-06-12T05:01:02.135Z,88.32
2018-06-12T05:02:02.093Z,88.23
2018-06-12T05:03:02.051Z,88.23
2018-06-12T05:04:02.008Z,88.23
2018-06-12T05:05:01.968Z,87.46
2018-06-12T05:06:01.927Z,87.55
2018-06-12T05:07:01.927Z,87.84
2018-06-12T05:08:01.846Z,87.37
2018-06-12T05:09:01.800Z,87.65
2018-06-12T05:10:01.759Z,87.94
2018-06-12T05:11:01.718Z,87.74
2018-06-12T05:12:01.694Z,88.03
2018-06-12T05:13:01.643Z,87.37
2018-06-12T05:14:01.596Z,88.03
2018-06-12T05:15:01.562Z,88.03
2018-06-12T05:16:01.523Z,87.65
2018-06-12T05:17:01.475Z,88.13
2018-06-12T05:18:01.426Z,88.13
2018-06-12T05:19:01.388Z,87.74
2018-06-12T05:20:01.454Z,88.03
2018-06-12T05:21:01.305Z,87.74
2018-06-12T05:22:01.259Z,87.27
2018-06-12T05:23:01.217Z,87.74
2018-06-12T05:24:01.179Z,87.74
2018-06-12T05:25:01.139Z,87.74
2018-06-12T05:26:01.095Z,87.74
2018-06-12T05:27:01.051Z,87.08
2018-06-12T05:28:01.010Z,87.37
2018-06-12T05:29:00.973Z,87.17
2018-06-12T05:30:00.929Z,87.12
2018-06-12T05:31:00.943Z,87.27
2018-06-12T05:32:00.844Z,86.02
2018-06-12T05:33:00.802Z,86.02
2018-06-12T05:34:00.761Z,86.45
2018-06-12T05:35:00.724Z,86.83
2018-06-12T05:36:00.681Z,86.69
2018-06-12T05:37:00.636Z,85.68
2018-06-12T05:38:00.604Z,86.54
2018-06-12T05:39:00.553Z,86.25
2018-06-12T05:40:00.513Z,86.16
2018-06-12T05:41:00.469Z,85.30
2018-06-12T05:42:00.432Z,85.49
2018-06-12T05:43:00.389Z,85.30
2018-06-12T05:44:00.347Z,85.58
2018-06-12T05:45:00.304Z,84.82
2018-06-12T05:46:00.266Z,85.30
2018-06-12T05:47:00.223Z,84.63
2018-06-12T05:48:00.185Z,84.91
2018-06-12T05:49:00.139Z,85.11
2018-06-12T05:50:00.100Z,84.15
2018-06-12T05:51:00.065Z,83.76
2018-06-12T05:52:00.028Z,82.90
2018-06-12T05:52:59.975Z,83.48
2018-06-12T05:53:59.934Z,83.29
2018-06-12T05:54:59.891Z,84.05
2018-06-12T05:55:59.854Z,83.09
2018-06-12T05:56:59.809Z,83.67
2018-06-12T05:57:59.768Z,83.09
2018-06-12T05:58:59.726Z,83.09
2018-06-12T05:59:59.684Z,83.48
2018-06-12T06:00:59.643Z,83.48
2018-06-12T06:01:59.602Z,83.48
2018-06-12T06:02:59.565Z,83.29
2018-06-12T06:03:59.522Z,83.09
2018-06-12T06:04:59.480Z,82.23
2018-06-12T06:05:59.441Z,82.04
2018-06-12T06:06:59.398Z,82.71
2018-06-12T06:07:59.356Z,81.85
2018-06-12T06:08:59.319Z,81.37
2018-06-12T06:09:59.274Z,82.23
2018-06-12T06:10:59.231Z,82.52
2018-06-12T06:11:59.188Z,82.42
2018-06-12T06:12:59.148Z,81.08
2018-06-12T06:13:59.105Z,81.41
2018-06-12T06:14:59.066Z,81.12
2018-06-12T06:15:59.023Z,81.22
2018-06-12T06:16:59.000Z,80.45
2018-06-12T06:17:58.941Z,80.45
2018-06-12T06:18:58.898Z,80.16
2018-06-12T06:19:58.859Z,80.64
2018-06-12T06:20:58.818Z,79.83
2018-06-12T06:21:58.775Z,80.45
2018-06-12T06:22:58.735Z,80.35
2018-06-12T06:23:58.695Z,80.35
2018-06-12T06:24:58.650Z,80.35
2018-06-12T06:25:58.609Z,80.07
2018-06-12T06:26:58.569Z,80.16
2018-06-12T06:27:58.529Z,79.97
2018-06-12T06:28:58.485Z,80.07
2018-06-12T06:29:58.446Z,80.16
2018-06-12T06:30:58.408Z,80.16
2018-06-12T06:31:58.365Z,79.49
2018-06-12T06:32:58.319Z,79.11
2018-06-12T06:33:58.286Z,79.88
2018-06-12T06:34:58.241Z,79.39
2018-06-12T06:35:58.199Z,79.11
2018-06-12T06:36:58.162Z,79.11
2018-06-12T06:37:58.116Z,79.49
2018-06-12T06:38:58.073Z,80.07
2018-06-12T06:39:58.032Z,79.78
2018-06-12T06:40:57.990Z,79.59
2018-06-12T06:41:57.952Z,79.01
2018-06-12T06:42:57.961Z,79.78
2018-06-12T06:43:57.867Z,79.01
2018-06-12T06:44:57.826Z,79.11
2018-06-12T06:45:57.785Z,79.59
2018-06-12T06:46:57.745Z,79.88
2018-06-12T06:47:57.702Z,79.88
2018-06-12T06:48:57.661Z,80.26
2018-06-12T06:49:57.619Z,80.11
2018-06-12T06:50:57.605Z,79.14
2018-06-12T06:51:57.538Z,79.05
2018-06-12T06:52:57.495Z,78.63
2018-06-12T06:53:57.458Z,79.01
2018-06-12T06:54:57.416Z,78.82
2018-06-12T06:55:57.375Z,78.82
2018-06-12T06:56:57.333Z,78.72
2018-06-12T06:57:57.291Z,79.01
2018-06-12T06:58:57.249Z,78.77
2018-06-12T06:59:57.213Z,78.47
2018-06-12T07:00:57.170Z,78.57
2018-06-12T07:01:57.126Z,78.47
2018-06-12T07:02:57.085Z,78.67
2018-06-12T07:03:57.044Z,77.42
2018-06-12T07:04:57.001Z,77.23
2018-06-12T07:05:56.965Z,77.33
2018-06-12T07:06:56.930Z,77.51
2018-06-12T07:07:56.880Z,77.23
2018-06-12T07:08:56.838Z,77.51
2018-06-12T07:09:56.798Z,78.47
2018-06-12T07:10:56.760Z,78.28
2018-06-12T07:11:56.716Z,77.51
2018-06-12T07:12:56.673Z,77.51
2018-06-12T07:13:56.634Z,78.00
2018-06-12T07:14:56.647Z,78.28
2018-06-12T07:15:56.552Z,77.61
2018-06-12T07:16:56.511Z,76.37
2018-06-12T07:17:56.471Z,76.56
2018-06-12T07:18:56.428Z,76.75
2018-06-12T07:19:56.390Z,76.46
2018-06-12T07:20:56.350Z,76.37
2018-06-12T07:21:56.309Z,76.84
2018-06-12T07:22:56.264Z,75.89
2018-06-12T07:23:56.224Z,76.75
2018-06-12T07:24:56.190Z,76.84
2018-06-12T07:25:56.142Z,76.37
2018-06-12T07:26:56.101Z,76.88
2018-06-12T07:27:56.059Z,75.06
2018-06-12T07:28:56.021Z,75.45
2018-06-12T07:29:55.987Z,75.15
2018-06-12T07:30:55.939Z,75.15
2018-06-12T07:31:55.896Z,75.15
2018-06-12T07:32:55.855Z,74.68
2018-06-12T07:33:55.817Z,74.10
2018-06-12T07:34:55.775Z,74.48
2018-06-12T07:35:55.736Z,74.39
2018-06-12T07:36:55.693Z,74.96
2018-06-12T07:37:55.650Z,74.96
2018-06-12T07:38:55.611Z,75.06
2018-06-12T07:39:55.573Z,74.96
2018-06-12T07:40:55.529Z,73.91
2018-06-12T07:41:55.492Z,73.72
2018-06-12T07:42:55.450Z,73.72
2018-06-12T07:43:55.408Z,74.10
2018-06-12T07:44:55.366Z,75.10
2018-06-12T07:45:55.331Z,74.13
2018-06-12T07:46:55.287Z,74.13
2018-06-12T07:47:55.245Z,73.46
2018-06-12T07:48:55.203Z,73.37
2018-06-12T07:49:55.166Z,74.43
2018-06-12T07:50:55.126Z,75.20
2018-06-12T07:51:55.090Z,74.23
2018-06-12T07:52:55.041Z,73.75
2018-06-12T07:53:56.852Z,72.69
2018-06-12T07:54:54.960Z,72.79
2018-06-12T07:55:54.920Z,73.08
2018-06-12T07:56:54.881Z,72.41
2018-06-12T07:57:54.837Z,72.31
2018-06-12T07:58:54.797Z,73.46
2018-06-12T07:59:54.757Z,72.69
2018-06-12T08:00:54.766Z,73.37
2018-06-12T08:01:54.677Z,72.06
2018-06-12T08:02:54.685Z,71.55
2018-06-12T08:03:54.597Z,71.45
2018-06-12T08:04:54.555Z,71.77
2018-06-12T08:05:54.517Z,71.64
2018-06-12T08:06:54.478Z,71.45
2018-06-12T08:07:54.434Z,72.22
2018-06-12T08:08:54.394Z,71.10
2018-06-12T08:09:54.355Z,71.58
2018-06-12T08:10:54.316Z,71.96
2018-06-12T08:11:54.271Z,71.67
2018-06-12T08:12:54.315Z,71.71
2018-06-12T08:13:54.193Z,71.42
2018-06-12T08:14:54.152Z,70.27
2018-06-12T08:15:54.112Z,70.37
2018-06-12T08:16:54.068Z,69.98
2018-06-12T08:17:54.036Z,69.21
2018-06-12T08:18:53.990Z,68.63
2018-06-12T08:19:53.952Z,68.25
2018-06-12T08:20:53.908Z,69.02
2018-06-12T08:21:53.868Z,69.21
2018-06-12T08:22:53.828Z,67.19
2018-06-12T08:23:53.848Z,67.58
2018-06-12T08:24:53.753Z,68.76
2018-06-12T08:25:53.708Z,69.44
2018-06-12T08:26:53.669Z,68.76
2018-06-12T08:27:53.630Z,68.76
2018-06-12T08:28:53.589Z,68.19
2018-06-12T08:29:53.587Z,68.22
2018-06-12T08:30:53.512Z,68.13
2018-06-12T08:31:53.470Z,66.88
2018-06-12T08:32:53.429Z,66.84
2018-06-12T08:33:53.389Z,66.94
2018-06-12T08:34:53.353Z,66.20
2018-06-12T08:35:53.310Z,67.74
2018-06-12T08:36:53.270Z,67.07
2018-06-12T08:37:53.230Z,67.26
2018-06-12T08:38:53.190Z,67.55
2018-06-12T08:39:53.201Z,66.10
2018-06-12T08:40:53.128Z,66.30
2018-06-12T08:41:53.073Z,65.72
2018-06-12T08:42:53.036Z,65.81
2018-06-12T08:43:52.992Z,66.52
2018-06-12T08:44:52.954Z,66.62
2018-06-12T08:45:52.913Z,66.42
2018-06-12T08:46:52.871Z,66.71
2018-06-12T08:47:52.833Z,66.24
2018-06-12T08:48:52.791Z,65.56
2018-06-12T08:49:52.754Z,66.36
2018-06-12T08:50:52.713Z,66.07
2018-06-12T08:51:52.674Z,65.30
2018-06-12T08:52:52.635Z,65.78
2018-06-12T08:53:52.596Z,64.34
2018-06-12T08:54:57.061Z,64.73
2018-06-12T08:55:52.517Z,63.67
2018-06-12T08:56:52.478Z,64.73
2018-06-12T08:57:52.439Z,64.05
2018-06-12T08:58:52.400Z,63.67
2018-06-12T08:59:52.368Z,62.99
2018-06-12T09:00:52.324Z,63.38
2018-06-12T09:01:52.286Z,64.25
2018-06-12T09:02:52.244Z,64.34
2018-06-12T09:03:52.204Z,63.89
2018-06-12T09:04:52.168Z,63.50
2018-06-12T09:05:52.125Z,63.21
2018-06-12T09:06:52.086Z,62.73
2018-06-12T09:07:52.049Z,63.50
2018-06-12T09:08:52.006Z,62.45
2018-06-12T09:09:51.972Z,62.45
2018-06-12T09:10:51.929Z,63.41
2018-06-12T09:11:51.891Z,63.41
2018-06-12T09:12:51.853Z,64.47
2018-06-12T09:13:51.818Z,63.79
2018-06-12T09:14:51.776Z,63.50
2018-06-12T09:15:51.737Z,62.45
2018-06-12T09:16:51.697Z,62.48
2018-06-12T09:17:51.659Z,61.96
2018-06-12T09:18:51.619Z,61.80
2018-06-12T09:19:51.583Z,62.18
2018-06-12T09:20:51.540Z,63.15
2018-06-12T09:21:51.517Z,63.15
2018-06-12T09:22:51.483Z,62.66
2018-06-12T09:23:51.427Z,62.86
2018-06-12T09:24:51.393Z,61.99
2018-06-12T09:25:51.347Z,61.22
2018-06-12T09:26:51.309Z,61.41
2018-06-12T09:27:51.271Z,60.93
2018-06-12T09:28:51.232Z,61.71
2018-06-12T09:29:51.191Z,61.99
2018-06-12T09:30:51.153Z,61.71
2018-06-12T09:31:51.114Z,61.71
2018-06-12T09:32:51.076Z,61.71
2018-06-12T09:33:51.038Z,61.54
2018-06-12T09:34:50.998Z,61.83
2018-06-12T09:35:50.964Z,62.31
2018-06-12T09:36:50.919Z,60.96
2018-06-12T09:37:50.881Z,60.19
2018-06-12T09:38:50.844Z,59.71
2018-06-12T09:39:50.809Z,59.25
2018-06-12T09:40:50.766Z,59.23
2018-06-12T09:41:50.730Z,59.35
2018-06-12T09:42:50.688Z,59.13
2018-06-12T09:43:50.650Z,57.62
2018-06-12T09:44:50.615Z,57.62
2018-06-12T09:45:50.579Z,58.87
2018-06-12T09:46:50.539Z,59.45
2018-06-12T09:47:50.498Z,59.25
2018-06-12T09:48:50.464Z,58.77
2018-06-12T09:49:50.422Z,58.87
2018-06-12T09:50:50.386Z,58.48
2018-06-12T09:51:50.348Z,59.19
2018-06-12T09:52:50.304Z,59.28
2018-06-12T09:53:50.270Z,58.80
2018-06-12T09:54:50.231Z,58.22
2018-06-12T09:55:50.192Z,57.93
2018-06-12T09:56:50.156Z,58.83
2018-06-12T09:57:50.217Z,57.96
2018-06-12T09:58:50.077Z,58.83
2018-06-12T09:59:50.041Z,56.99
2018-06-12T10:00:50.008Z,57.77
2018-06-12T10:01:49.976Z,57.19
2018-06-12T10:02:49.930Z,56.99
2018-06-12T10:03:49.896Z,57.38
2018-06-12T10:04:49.849Z,56.80
2018-06-12T10:05:49.814Z,56.61
2018-06-12T10:06:49.777Z,57.19
2018-06-12T10:07:49.739Z,57.29
2018-06-12T10:08:49.700Z,56.25
2018-06-12T10:09:49.663Z,56.54
2018-06-12T10:10:49.626Z,55.19
2018-06-12T10:11:49.592Z,55.96
2018-06-12T10:12:49.550Z,56.35
2018-06-12T10:13:49.508Z,56.05
2018-06-12T10:14:49.474Z,55.87
2018-06-12T10:15:49.434Z,56.15
2018-06-12T10:16:49.398Z,56.73
2018-06-12T10:17:49.361Z,55.67
2018-06-12T10:18:49.329Z,54.99
2018-06-12T10:19:49.284Z,54.80
2018-06-12T10:20:49.246Z,54.99
2018-06-12T10:21:49.213Z,54.13
2018-06-12T10:22:49.172Z,55.87
2018-06-12T10:23:49.133Z,55.87
2018-06-12T10:24:49.096Z,56.15
2018-06-12T10:25:49.066Z,54.99
2018-06-12T10:26:49.023Z,55.67
2018-06-12T10:27:48.985Z,55.77
2018-06-12T10:28:48.946Z,55.96
2018-06-12T10:29:48.912Z,56.73
2018-06-12T10:30:48.872Z,56.54
2018-06-12T10:31:48.835Z,56.54
2018-06-12T10:32:48.796Z,56.25
2018-06-12T10:33:48.758Z,55.77
2018-06-12T10:34:48.721Z,54.32
2018-06-12T10:35:48.684Z,54.41
2018-06-12T10:36:48.644Z,55.47
2018-06-12T10:37:48.608Z,56.15
2018-06-12T10:38:48.573Z,57.31
2018-06-12T10:39:48.538Z,56.25
2018-06-12T10:40:48.494Z,55.77
2018-06-12T10:41:48.459Z,54.90
2018-06-12T10:42:48.421Z,54.71
2018-06-12T10:43:48.384Z,55.29
2018-06-12T10:44:48.347Z,54.99
2018-06-12T10:45:48.309Z,57.44
2018-06-12T10:46:48.271Z,55.31
2018-06-12T10:47:48.234Z,56.18
2018-06-12T10:48:48.196Z,55.51
2018-06-12T10:49:48.157Z,53.77
2018-06-12T10:50:48.134Z,55.82
2018-06-12T10:51:48.086Z,53.50
2018-06-12T10:52:48.046Z,55.05
2018-06-12T10:53:48.012Z,53.02
2018-06-12T10:54:47.972Z,54.11
2018-06-12T10:55:47.944Z,52.56
2018-06-12T10:56:47.897Z,53.04
2018-06-12T10:57:47.867Z,52.75
2018-06-12T10:58:47.829Z,51.40
2018-06-12T10:59:47.787Z,51.90
2018-06-12T11:00:47.748Z,52.00
2018-06-12T11:01:47.714Z,51.23
2018-06-12T11:02:47.676Z,50.29
2018-06-12T11:03:47.641Z,50.74
2018-06-12T11:04:47.601Z,50.65
2018-06-12T11:05:47.564Z,50.09
2018-06-12T11:06:47.527Z,51.45
2018-06-12T11:07:47.491Z,50.48
2018-06-12T11:08:47.459Z,50.29
2018-06-12T11:09:47.418Z,50.87
2018-06-12T11:10:47.387Z,50.57
2018-06-12T11:11:47.346Z,50.87
2018-06-12T11:12:47.308Z,50.19
2018-06-12T11:13:47.272Z,49.80
2018-06-12T11:14:47.234Z,50.67
2018-06-12T11:15:47.200Z,50.48
2018-06-12T11:16:47.162Z,50.48
2018-06-12T11:17:47.125Z,50.96
2018-06-12T11:18:47.093Z,51.25
2018-06-12T11:19:47.052Z,50.87
2018-06-12T11:20:47.025Z,51.35
2018-06-12T11:21:46.981Z,49.41
2018-06-12T11:22:46.942Z,49.80
2018-06-12T11:23:46.907Z,50.67
2018-06-12T11:24:46.870Z,50.19
2018-06-12T11:25:46.832Z,50.07
2018-06-12T11:26:46.797Z,50.07
2018-06-12T11:27:46.763Z,50.45
2018-06-12T11:28:46.724Z,51.81
2018-06-12T11:29:46.690Z,51.68
2018-06-12T11:30:46.651Z,51.40
2018-06-12T11:31:46.620Z,52.27
2018-06-12T11:32:46.577Z,52.17
2018-06-12T11:33:46.540Z,51.56
2018-06-12T11:34:46.504Z,52.73
2018-06-12T11:35:46.471Z,52.34
2018-06-12T11:36:46.431Z,52.73
2018-06-12T11:37:46.394Z,52.14
2018-06-12T11:38:46.358Z,53.11
2018-06-12T11:39:46.318Z,53.77
2018-06-12T11:40:46.283Z,54.15
2018-06-12T11:41:46.248Z,54.35
2018-06-12T11:42:46.207Z,54.05
2018-06-12T11:43:46.171Z,54.99
2018-06-12T11:44:46.134Z,54.90
2018-06-12T11:45:46.096Z,55.38
2018-06-12T11:46:46.060Z,55.77
2018-06-12T11:47:46.023Z,54.99
2018-06-12T11:48:45.985Z,55.77
2018-06-12T11:49:45.948Z,55.47
2018-06-12T11:50:45.910Z,55.77
2018-06-12T11:51:45.875Z,55.77
2018-06-12T11:52:45.834Z,56.35
2018-06-12T11:53:45.796Z,56.05
2018-06-12T11:54:45.759Z,56.15
2018-06-12T11:55:45.722Z,55.07
2018-06-12T11:56:45.685Z,54.97
2018-06-12T11:57:45.648Z,56.13
2018-06-12T11:58:45.611Z,56.71
2018-06-12T11:59:45.575Z,57.29
2018-06-12T12:00:45.539Z,56.22
2018-06-12T12:01:45.501Z,56.80
2018-06-12T12:02:45.468Z,57.48
2018-06-12T12:03:45.420Z,57.26
2018-06-12T12:04:45.381Z,57.93
2018-06-12T12:05:45.348Z,57.84
2018-06-12T12:06:45.307Z,57.16
2018-06-12T12:07:45.268Z,56.77
2018-06-12T12:08:45.233Z,57.35
2018-06-12T12:09:45.191Z,56.48
2018-06-12T12:10:45.155Z,56.58
2018-06-12T12:11:45.117Z,57.35
2018-06-12T12:12:45.078Z,57.54
2018-06-12T12:13:45.040Z,57.74
2018-06-12T12:14:45.004Z,58.90
2018-06-12T12:15:44.966Z,58.61
2018-06-12T12:16:44.930Z,58.03
2018-06-12T12:17:44.888Z,57.84
2018-06-12T12:18:44.852Z,55.90
2018-06-12T12:19:44.898Z,56.77
2018-06-12T12:20:44.775Z,57.14
2018-06-12T12:21:44.736Z,57.62
2018-06-12T12:22:44.699Z,58.39
2018-06-12T12:23:44.661Z,58.77
2018-06-12T12:24:44.621Z,59.45
2018-06-12T12:25:44.589Z,61.77
2018-06-12T12:26:44.545Z,62.25
2018-06-12T12:27:44.506Z,60.99
2018-06-12T12:28:44.554Z,62.54
2018-06-12T12:29:44.432Z,63.50
2018-06-12T12:30:44.393Z,62.41
2018-06-12T12:31:44.353Z,63.18
2018-06-12T12:32:44.317Z,62.12
2018-06-12T12:33:44.276Z,64.05
2018-06-12T12:34:44.240Z,64.15
2018-06-12T12:35:44.204Z,65.88
2018-06-12T12:36:44.162Z,65.75
2018-06-12T12:37:44.125Z,65.47
2018-06-12T12:38:44.087Z,64.34
2018-06-12T12:39:44.056Z,65.75
2018-06-12T12:40:44.013Z,64.89
2018-06-12T12:41:43.970Z,65.27
2018-06-12T12:42:43.932Z,65.85
2018-06-12T12:43:43.908Z,65.95
2018-06-12T12:44:43.851Z,66.62
2018-06-12T12:45:43.814Z,67.00
2018-06-12T12:46:43.775Z,68.26
2018-06-12T12:47:43.739Z,68.04
2018-06-12T12:48:43.696Z,68.90
2018-06-12T12:49:43.660Z,68.04
2018-06-12T12:50:43.622Z,67.16
2018-06-12T12:51:43.584Z,68.52
2018-06-12T12:52:43.544Z,69.48